Roseburg, Oregon
Current Conditions -  °F | °C
As of 12:28 AM on Saturday 25 Oct 2014 (Local Time) from KRBG Reporting Station
Haze Haze  
Wind Chill: 54°   Ceiling: 200
Heat Index: 54°   Visibility: 2.5mi
Dew Point: 52°   Wind: 0mph
Humidity: 93%   Direction: NA
Pressure: 29.64"   Gusts: NA
Location:  43.21°N, 123.34°W
Report Text: KRBG 250728Z AUTO 00000KT 2 1/2SM BR OVC002 12/11 A2964 RMK AO2 T01220111 $
Loading
Personal Weather Stations






























Interactive Weather Map
Tropical Storm Tracking
New forecast layout! Learn more

10-Day Weather Forecast

Advertisements
Track Severe Weather on mobile